PWSweather.com
Personal Weather Stations
Station Observations
KOMOKA2
Middlesex Centre, Komoka, ON N0L 1R0

Middlesex CentreKomoka, ON N0L 1R0

Lat: 42.9542444, Lon: -81.4348861

Elevation: 805

Station Type: Davis VP2 w/ Vue Console

High Low Average
Temperature 72.9°F22.7°C 41.7°F5.4°C 59.3°F15.2°C
Dew Point 52.0°F11.1°C 35.0°F1.7°C 44.4°F6.9°C
Winds 3.4 mph 5.5 kmh Calm Calm 1.0 mph NW1.6 kmh NW
Wind Gusts 10.0 mph16.1 kmh -- 3.0 mph4.8 kmh
Humidity 78% 29% 61%
Pressure 30.01 in1016.3 mb 29.79 in1008.8 mb -
Precipitation 0.06 in1.5 mm - -
Hour Temp Dew Point Humidity Winds Wind Gusts Pressure Precip Precip Rate Daily Precip Total
12:00 AM 44.7°F7.1°C 38.0°F3.3°C 77% Calm Calm -- 29.97 in1014.9 mb 0.00 in0.0 mm 0.00 in0.0 mm 0.00 in0.0 mm
12:05 AM 44.8°F7.1°C 38.0°F3.3°C 77% Calm Calm -- 29.97 in1014.9 mb 0.00 in0.0 mm 0.00 in0.0 mm 0.00 in0.0 mm
12:10 AM 44.6°F7.0°C 38.0°F3.3°C 77% Calm Calm -- 29.98 in1015.2 mb 0.00 in0.0 mm 0.00 in0.0 mm 0.00 in0.0 mm
12:15 AM 44.6°F7.0°C 38.0°F3.3°C 77% Calm Calm -- 29.97 in1014.9 mb 0.00 in0.0 mm 0.00 in0.0 mm 0.00 in0.0 mm
12:20 AM 44.5°F6.9°C 38.0°F3.3°C 77% Calm Calm -- 29.97 in1014.9 mb 0.00 in0.0 mm 0.00 in0.0 mm 0.00 in0.0 mm
12:25 AM 44.2°F6.8°C 37.0°F2.8°C 77% Calm Calm -- 29.97 in1014.9 mb 0.00 in0.0 mm 0.00 in0.0 mm 0.00 in0.0 mm
12:30 AM 44.2°F6.8°C 37.0°F2.8°C 77% Calm Calm -- 29.97 in1014.9 mb 0.00 in0.0 mm 0.00 in0.0 mm 0.00 in0.0 mm
12:35 AM 44.3°F6.8°C 38.0°F3.3°C 77% Calm Calm -- 29.97 in1014.9 mb 0.00 in0.0 mm 0.00 in0.0 mm 0.00 in0.0 mm
12:40 AM 44.2°F6.8°C 37.0°F2.8°C 77% Calm Calm -- 29.97 in1014.9 mb 0.00 in0.0 mm 0.00 in0.0 mm 0.00 in0.0 mm
12:45 AM 44.2°F6.8°C 37.0°F2.8°C 77% Calm Calm -- 29.97 in1014.9 mb 0.00 in0.0 mm 0.00 in0.0 mm 0.00 in0.0 mm
12:50 AM 44.2°F6.8°C 37.0°F2.8°C 77% Calm Calm -- 29.97 in1014.9 mb 0.00 in0.0 mm 0.00 in0.0 mm 0.00 in0.0 mm
12:55 AM 44.0°F6.7°C 37.0°F2.8°C 77% Calm Calm -- 29.97 in1014.9 mb 0.00 in0.0 mm 0.00 in0.0 mm 0.00 in0.0 mm
01:00 AM 43.8°F6.6°C 37.0°F2.8°C 77% Calm Calm -- 29.97 in1014.9 mb 0.00 in0.0 mm 0.00 in0.0 mm 0.00 in0.0 mm
01:05 AM 43.8°F6.6°C 37.0°F2.8°C 77% Calm Calm -- 29.96 in1014.6 mb 0.00 in0.0 mm 0.00 in0.0 mm 0.00 in0.0 mm
01:10 AM 43.5°F6.4°C 37.0°F2.8°C 77% Calm Calm -- 29.96 in1014.6 mb 0.00 in0.0 mm 0.00 in0.0 mm 0.00 in0.0 mm
01:15 AM 43.4°F6.3°C 37.0°F2.8°C 77% Calm Calm -- 29.97 in1014.9 mb 0.00 in0.0 mm 0.00 in0.0 mm 0.00 in0.0 mm
01:20 AM 43.3°F6.3°C 37.0°F2.8°C 77% Calm Calm -- 29.96 in1014.6 mb 0.00 in0.0 mm 0.00 in0.0 mm 0.00 in0.0 mm
01:25 AM 43.4°F6.3°C 37.0°F2.8°C 77% Calm Calm -- 29.96 in1014.6 mb 0.00 in0.0 mm 0.00 in0.0 mm 0.00 in0.0 mm
01:30 AM 43.3°F6.3°C 37.0°F2.8°C 77% Calm Calm -- 29.96 in1014.6 mb 0.00 in0.0 mm 0.00 in0.0 mm 0.00 in0.0 mm
01:35 AM 43.3°F6.3°C 37.0°F2.8°C 77% Calm Calm -- 29.96 in1014.6 mb 0.00 in0.0 mm 0.00 in0.0 mm 0.00 in0.0 mm
01:40 AM 43.1°F6.2°C 36.0°F2.2°C 77% Calm Calm -- 29.95 in1014.2 mb 0.00 in0.0 mm 0.00 in0.0 mm 0.00 in0.0 mm
01:45 AM 43.0°F6.1°C 37.0°F2.8°C 78% Calm Calm -- 29.95 in1014.2 mb 0.00 in0.0 mm 0.00 in0.0 mm 0.00 in0.0 mm
01:50 AM 43.0°F6.1°C 37.0°F2.8°C 78% Calm Calm -- 29.95 in1014.2 mb 0.00 in0.0 mm 0.00 in0.0 mm 0.00 in0.0 mm
01:55 AM 43.0°F6.1°C 37.0°F2.8°C 78% Calm Calm -- 29.95 in1014.2 mb 0.00 in0.0 mm 0.00 in0.0 mm 0.00 in0.0 mm
02:00 AM 43.1°F6.2°C 37.0°F2.8°C 78% Calm Calm -- 29.95 in1014.2 mb 0.00 in0.0 mm 0.00 in0.0 mm 0.00 in0.0 mm
02:05 AM 42.9°F6.1°C 36.0°F2.2°C 78% Calm Calm -- 29.95 in1014.2 mb 0.00 in0.0 mm 0.00 in0.0 mm 0.00 in0.0 mm
02:10 AM 42.9°F6.1°C 36.0°F2.2°C 78% Calm Calm -- 29.95 in1014.2 mb 0.00 in0.0 mm 0.00 in0.0 mm 0.00 in0.0 mm
02:15 AM 42.8°F6.0°C 36.0°F2.2°C 78% Calm Calm -- 29.95 in1014.2 mb 0.00 in0.0 mm 0.00 in0.0 mm 0.00 in0.0 mm
02:20 AM 42.4°F5.8°C 36.0°F2.2°C 78% Calm Calm -- 29.95 in1014.2 mb 0.00 in0.0 mm 0.00 in0.0 mm 0.00 in0.0 mm
02:25 AM 42.4°F5.8°C 36.0°F2.2°C 78% Calm Calm -- 29.95 in1014.2 mb 0.00 in0.0 mm 0.00 in0.0 mm 0.00 in0.0 mm
02:30 AM 42.3°F5.7°C 36.0°F2.2°C 78% Calm Calm -- 29.95 in1014.2 mb 0.00 in0.0 mm 0.00 in0.0 mm 0.00 in0.0 mm
02:35 AM 42.4°F5.8°C 36.0°F2.2°C 78% Calm Calm -- 29.95 in1014.2 mb 0.00 in0.0 mm 0.00 in0.0 mm 0.00 in0.0 mm
02:40 AM 42.4°F5.8°C 36.0°F2.2°C 78% Calm Calm -- 29.95 in1014.2 mb 0.00 in0.0 mm 0.00 in0.0 mm 0.00 in0.0 mm
02:45 AM 42.4°F5.8°C 36.0°F2.2°C 78% Calm Calm -- 29.95 in1014.2 mb 0.00 in0.0 mm 0.00 in0.0 mm 0.00 in0.0 mm
02:50 AM 42.2°F5.7°C 36.0°F2.2°C 78% Calm Calm -- 29.95 in1014.2 mb 0.00 in0.0 mm 0.00 in0.0 mm 0.00 in0.0 mm
02:55 AM 42.4°F5.8°C 36.0°F2.2°C 78% Calm Calm -- 29.95 in1014.2 mb 0.00 in0.0 mm 0.00 in0.0 mm 0.00 in0.0 mm
03:00 AM 42.4°F5.8°C 36.0°F2.2°C 78% Calm Calm -- 29.95 in1014.2 mb 0.00 in0.0 mm 0.00 in0.0 mm 0.00 in0.0 mm
03:05 AM 42.2°F5.7°C 36.0°F2.2°C 78% Calm Calm -- 29.95 in1014.2 mb 0.00 in0.0 mm 0.00 in0.0 mm 0.00 in0.0 mm
03:10 AM 41.8°F5.4°C 35.0°F1.7°C 78% Calm Calm -- 29.95 in1014.2 mb 0.00 in0.0 mm 0.00 in0.0 mm 0.00 in0.0 mm
03:15 AM 42.1°F5.6°C 36.0°F2.2°C 78% Calm Calm -- 29.96 in1014.6 mb 0.00 in0.0 mm 0.00 in0.0 mm 0.00 in0.0 mm
03:20 AM 42.1°F5.6°C 36.0°F2.2°C 78% Calm Calm -- 29.96 in1014.6 mb 0.00 in0.0 mm 0.00 in0.0 mm 0.00 in0.0 mm
03:25 AM 41.9°F5.5°C 36.0°F2.2°C 78% Calm Calm -- 29.96 in1014.6 mb 0.00 in0.0 mm 0.00 in0.0 mm 0.00 in0.0 mm
03:30 AM 41.8°F5.4°C 35.0°F1.7°C 78% Calm Calm -- 29.97 in1014.9 mb 0.00 in0.0 mm 0.00 in0.0 mm 0.00 in0.0 mm
03:35 AM 41.8°F5.4°C 35.0°F1.7°C 78% Calm Calm -- 29.97 in1014.9 mb 0.00 in0.0 mm 0.00 in0.0 mm 0.00 in0.0 mm
03:40 AM 41.7°F5.4°C 35.0°F1.7°C 78% Calm Calm -- 29.97 in1014.9 mb 0.00 in0.0 mm 0.00 in0.0 mm 0.00 in0.0 mm
03:45 AM 41.7°F5.4°C 35.0°F1.7°C 78% Calm Calm -- 29.97 in1014.9 mb 0.00 in0.0 mm 0.00 in0.0 mm 0.00 in0.0 mm
03:50 AM 41.8°F5.4°C 35.0°F1.7°C 78% Calm Calm -- 29.97 in1014.9 mb 0.00 in0.0 mm 0.00 in0.0 mm 0.00 in0.0 mm
03:55 AM 42.0°F5.6°C 36.0°F2.2°C 78% Calm Calm -- 29.97 in1014.9 mb 0.00 in0.0 mm 0.00 in0.0 mm 0.00 in0.0 mm
04:00 AM 41.8°F5.4°C 35.0°F1.7°C 78% Calm Calm -- 29.97 in1014.9 mb 0.00 in0.0 mm 0.00 in0.0 mm 0.00 in0.0 mm
04:05 AM 41.7°F5.4°C 35.0°F1.7°C 78% Calm Calm -- 29.97 in1014.9 mb 0.00 in0.0 mm 0.00 in0.0 mm 0.00 in0.0 mm
04:10 AM 42.0°F5.6°C 36.0°F2.2°C 78% Calm Calm -- 29.98 in1015.2 mb 0.00 in0.0 mm 0.00 in0.0 mm 0.00 in0.0 mm
04:15 AM 42.4°F5.8°C 36.0°F2.2°C 78% Calm Calm -- 29.98 in1015.2 mb 0.00 in0.0 mm 0.00 in0.0 mm 0.00 in0.0 mm
04:20 AM 42.5°F5.8°C 36.0°F2.2°C 78% Calm Calm -- 29.97 in1014.9 mb 0.00 in0.0 mm 0.00 in0.0 mm 0.00 in0.0 mm
04:25 AM 42.7°F5.9°C 36.0°F2.2°C 78% Calm Calm -- 29.97 in1014.9 mb 0.00 in0.0 mm 0.00 in0.0 mm 0.00 in0.0 mm
04:30 AM 43.0°F6.1°C 37.0°F2.8°C 78% Calm Calm -- 29.98 in1015.2 mb 0.00 in0.0 mm 0.00 in0.0 mm 0.00 in0.0 mm
04:35 AM 43.4°F6.3°C 37.0°F2.8°C 78% Calm Calm -- 29.98 in1015.2 mb 0.00 in0.0 mm 0.00 in0.0 mm 0.00 in0.0 mm
04:40 AM 43.8°F6.6°C 37.0°F2.8°C 78% Calm Calm -- 29.98 in1015.2 mb 0.00 in0.0 mm 0.00 in0.0 mm 0.00 in0.0 mm
04:45 AM 43.9°F6.6°C 37.0°F2.8°C 78% Calm Calm -- 29.98 in1015.2 mb 0.00 in0.0 mm 0.00 in0.0 mm 0.00 in0.0 mm
04:50 AM 44.1°F6.7°C 38.0°F3.3°C 78% Calm Calm -- 29.98 in1015.2 mb 0.00 in0.0 mm 0.00 in0.0 mm 0.00 in0.0 mm
04:55 AM 44.3°F6.8°C 38.0°F3.3°C 78% Calm Calm -- 29.99 in1015.6 mb 0.00 in0.0 mm 0.00 in0.0 mm 0.00 in0.0 mm
05:00 AM 44.5°F6.9°C 38.0°F3.3°C 78% Calm Calm -- 29.99 in1015.6 mb 0.00 in0.0 mm 0.00 in0.0 mm 0.00 in0.0 mm
05:05 AM 44.8°F7.1°C 38.0°F3.3°C 78% Calm Calm -- 29.99 in1015.6 mb 0.00 in0.0 mm 0.00 in0.0 mm 0.00 in0.0 mm
05:10 AM 45.0°F7.2°C 39.0°F3.9°C 78% Calm Calm -- 29.99 in1015.6 mb 0.00 in0.0 mm 0.00 in0.0 mm 0.00 in0.0 mm
05:15 AM 45.4°F7.4°C 39.0°F3.9°C 78% Calm Calm -- 30.00 in1015.9 mb 0.00 in0.0 mm 0.00 in0.0 mm 0.00 in0.0 mm
05:20 AM 45.6°F7.6°C 39.0°F3.9°C 78% Calm Calm -- 30.00 in1015.9 mb 0.00 in0.0 mm 0.00 in0.0 mm 0.00 in0.0 mm
05:25 AM 45.6°F7.6°C 39.0°F3.9°C 78% Calm Calm -- 30.00 in1015.9 mb 0.00 in0.0 mm 0.00 in0.0 mm 0.00 in0.0 mm
05:30 AM 45.7°F7.6°C 39.0°F3.9°C 78% Calm Calm -- 30.00 in1015.9 mb 0.00 in0.0 mm 0.00 in0.0 mm 0.00 in0.0 mm
05:35 AM 45.8°F7.7°C 39.0°F3.9°C 78% Calm Calm -- 29.99 in1015.6 mb 0.00 in0.0 mm 0.00 in0.0 mm 0.00 in0.0 mm
05:40 AM 46.0°F7.8°C 40.0°F4.4°C 78% Calm Calm -- 29.99 in1015.6 mb 0.00 in0.0 mm 0.00 in0.0 mm 0.00 in0.0 mm
05:45 AM 46.2°F7.9°C 40.0°F4.4°C 78% Calm Calm -- 29.99 in1015.6 mb 0.00 in0.0 mm 0.00 in0.0 mm 0.00 in0.0 mm
05:50 AM 46.4°F8.0°C 40.0°F4.4°C 78% Calm Calm -- 29.99 in1015.6 mb 0.00 in0.0 mm 0.00 in0.0 mm 0.00 in0.0 mm
05:55 AM 46.6°F8.1°C 40.0°F4.4°C 78% Calm Calm -- 29.99 in1015.6 mb 0.00 in0.0 mm 0.00 in0.0 mm 0.00 in0.0 mm
06:00 AM 46.8°F8.2°C 40.0°F4.4°C 78% Calm Calm -- 29.99 in1015.6 mb 0.00 in0.0 mm 0.00 in0.0 mm 0.00 in0.0 mm
06:05 AM 47.0°F8.3°C 40.0°F4.4°C 78% Calm Calm -- 29.99 in1015.6 mb 0.00 in0.0 mm 0.00 in0.0 mm 0.00 in0.0 mm
06:10 AM 47.0°F8.3°C 40.0°F4.4°C 78% Calm Calm -- 30.00 in1015.9 mb 0.00 in0.0 mm 0.00 in0.0 mm 0.00 in0.0 mm
06:15 AM 47.0°F8.3°C 40.0°F4.4°C 78% Calm Calm -- 30.00 in1015.9 mb 0.00 in0.0 mm 0.00 in0.0 mm 0.00 in0.0 mm
06:20 AM 47.1°F8.4°C 41.0°F5.0°C 78% Calm Calm -- 30.00 in1015.9 mb 0.00 in0.0 mm 0.00 in0.0 mm 0.00 in0.0 mm
06:25 AM 47.3°F8.5°C 41.0°F5.0°C 78% Calm Calm -- 30.00 in1015.9 mb 0.00 in0.0 mm 0.00 in0.0 mm 0.00 in0.0 mm
06:30 AM 47.4°F8.6°C 41.0°F5.0°C 77% Calm Calm 1.0 mph1.6 kmh 30.00 in1015.9 mb 0.00 in0.0 mm 0.00 in0.0 mm 0.00 in0.0 mm
06:35 AM 47.5°F8.6°C 41.0°F5.0°C 77% Calm Calm 1.0 mph1.6 kmh 30.00 in1015.9 mb 0.00 in0.0 mm 0.00 in0.0 mm 0.00 in0.0 mm
06:40 AM 47.6°F8.7°C 41.0°F5.0°C 78% Calm Calm -- 30.00 in1015.9 mb 0.00 in0.0 mm 0.00 in0.0 mm 0.00 in0.0 mm
06:45 AM 47.8°F8.8°C 41.0°F5.0°C 77% Calm Calm -- 30.00 in1015.9 mb 0.00 in0.0 mm 0.00 in0.0 mm 0.00 in0.0 mm
06:50 AM 47.9°F8.8°C 41.0°F5.0°C 77% Calm Calm -- 30.00 in1015.9 mb 0.00 in0.0 mm 0.00 in0.0 mm 0.00 in0.0 mm
06:55 AM 48.0°F8.9°C 41.0°F5.0°C 77% Calm Calm -- 30.00 in1015.9 mb 0.00 in0.0 mm 0.00 in0.0 mm 0.00 in0.0 mm
07:00 AM 48.3°F9.1°C 41.0°F5.0°C 77% Calm Calm -- 30.00 in1015.9 mb 0.00 in0.0 mm 0.00 in0.0 mm 0.00 in0.0 mm
07:05 AM 48.7°F9.3°C 42.0°F5.6°C 77% Calm Calm -- 30.00 in1015.9 mb 0.00 in0.0 mm 0.00 in0.0 mm 0.00 in0.0 mm
07:10 AM 49.0°F9.4°C 42.0°F5.6°C 77% Calm Calm -- 30.00 in1015.9 mb 0.00 in0.0 mm 0.00 in0.0 mm 0.00 in0.0 mm
07:15 AM 49.5°F9.7°C 43.0°F6.1°C 77% Calm Calm -- 30.00 in1015.9 mb 0.00 in0.0 mm 0.00 in0.0 mm 0.00 in0.0 mm
07:20 AM 49.8°F9.9°C 43.0°F6.1°C 76% Calm Calm -- 30.00 in1015.9 mb 0.00 in0.0 mm 0.00 in0.0 mm 0.00 in0.0 mm
07:25 AM 50.3°F10.2°C 43.0°F6.1°C 76% Calm Calm -- 30.00 in1015.9 mb 0.00 in0.0 mm 0.00 in0.0 mm 0.00 in0.0 mm
07:30 AM 50.6°F10.3°C 43.0°F6.1°C 76% Calm Calm -- 30.01 in1016.3 mb 0.00 in0.0 mm 0.00 in0.0 mm 0.00 in0.0 mm
07:35 AM 50.8°F10.4°C 44.0°F6.7°C 76% Calm Calm -- 30.00 in1015.9 mb 0.00 in0.0 mm 0.00 in0.0 mm 0.00 in0.0 mm
07:40 AM 51.2°F10.7°C 44.0°F6.7°C 76% Calm Calm -- 30.00 in1015.9 mb 0.00 in0.0 mm 0.00 in0.0 mm 0.00 in0.0 mm
07:45 AM 51.5°F10.8°C 44.0°F6.7°C 76% Calm Calm -- 30.00 in1015.9 mb 0.00 in0.0 mm 0.00 in0.0 mm 0.00 in0.0 mm
07:50 AM 51.8°F11.0°C 44.0°F6.7°C 76% Calm Calm -- 30.00 in1015.9 mb 0.00 in0.0 mm 0.00 in0.0 mm 0.00 in0.0 mm
07:55 AM 52.4°F11.3°C 45.0°F7.2°C 76% Calm Calm -- 30.00 in1015.9 mb 0.00 in0.0 mm 0.00 in0.0 mm 0.00 in0.0 mm
08:00 AM 53.1°F11.7°C 45.0°F7.2°C 74% Calm Calm -- 30.00 in1015.9 mb 0.00 in0.0 mm 0.00 in0.0 mm 0.00 in0.0 mm
08:05 AM 54.0°F12.2°C 45.0°F7.2°C 72% Calm Calm 1.0 mph1.6 kmh 30.00 in1015.9 mb 0.00 in0.0 mm 0.00 in0.0 mm 0.00 in0.0 mm
08:10 AM 54.5°F12.5°C 44.0°F6.7°C 68% 0.1 mph N0.2 kmh N 2.0 mph3.2 kmh 30.00 in1015.9 mb 0.00 in0.0 mm 0.00 in0.0 mm 0.00 in0.0 mm
08:15 AM 55.0°F12.8°C 43.0°F6.1°C 65% 0.3 mph N0.5 kmh N 2.0 mph3.2 kmh 30.00 in1015.9 mb 0.00 in0.0 mm 0.00 in0.0 mm 0.00 in0.0 mm
08:20 AM 55.8°F13.2°C 44.0°F6.7°C 64% 0.6 mph N1.0 kmh N 3.0 mph4.8 kmh 30.00 in1015.9 mb 0.00 in0.0 mm 0.00 in0.0 mm 0.00 in0.0 mm
08:25 AM 56.6°F13.7°C 44.0°F6.7°C 63% 0.7 mph NNE1.1 kmh NNE 3.0 mph4.8 kmh 30.00 in1015.9 mb 0.00 in0.0 mm 0.00 in0.0 mm 0.00 in0.0 mm
08:30 AM 57.3°F14.1°C 43.0°F6.1°C 60% 0.6 mph N1.0 kmh N 3.0 mph4.8 kmh 30.00 in1015.9 mb 0.00 in0.0 mm 0.00 in0.0 mm 0.00 in0.0 mm
08:35 AM 58.5°F14.7°C 45.0°F7.2°C 61% 0.9 mph N1.4 kmh N 4.0 mph6.4 kmh 30.00 in1015.9 mb 0.00 in0.0 mm 0.00 in0.0 mm 0.00 in0.0 mm
08:40 AM 59.5°F15.3°C 44.0°F6.7°C 58% 0.8 mph N1.3 kmh N 4.0 mph6.4 kmh 30.00 in1015.9 mb 0.00 in0.0 mm 0.00 in0.0 mm 0.00 in0.0 mm
08:45 AM 59.7°F15.4°C 44.0°F6.7°C 57% 0.3 mph N0.5 kmh N 3.0 mph4.8 kmh 30.00 in1015.9 mb 0.00 in0.0 mm 0.00 in0.0 mm 0.00 in0.0 mm
08:50 AM 59.7°F15.4°C 44.0°F6.7°C 57% 0.2 mph N0.3 kmh N 3.0 mph4.8 kmh 30.00 in1015.9 mb 0.00 in0.0 mm 0.00 in0.0 mm 0.00 in0.0 mm
08:55 AM 60.1°F15.6°C 45.0°F7.2°C 58% 0.1 mph N0.2 kmh N 1.0 mph1.6 kmh 30.00 in1015.9 mb 0.00 in0.0 mm 0.00 in0.0 mm 0.00 in0.0 mm
09:00 AM 60.4°F15.8°C 45.0°F7.2°C 58% 0.5 mph N0.8 kmh N 3.0 mph4.8 kmh 30.00 in1015.9 mb 0.00 in0.0 mm 0.00 in0.0 mm 0.00 in0.0 mm
09:05 AM 61.1°F16.2°C 46.0°F7.8°C 57% 0.7 mph N1.1 kmh N 4.0 mph6.4 kmh 30.00 in1015.9 mb 0.00 in0.0 mm 0.00 in0.0 mm 0.00 in0.0 mm
09:10 AM 61.7°F16.5°C 46.0°F7.8°C 57% 0.5 mph N0.8 kmh N 4.0 mph6.4 kmh 30.00 in1015.9 mb 0.00 in0.0 mm 0.00 in0.0 mm 0.00 in0.0 mm
09:15 AM 62.5°F16.9°C 47.0°F8.3°C 57% 0.8 mph ESE1.3 kmh ESE 3.0 mph4.8 kmh 30.00 in1015.9 mb 0.00 in0.0 mm 0.00 in0.0 mm 0.00 in0.0 mm
09:20 AM 63.5°F17.5°C 47.0°F8.3°C 56% 1.2 mph NNE1.9 kmh NNE 7.0 mph11.3 kmh 30.00 in1015.9 mb 0.00 in0.0 mm 0.00 in0.0 mm 0.00 in0.0 mm
09:25 AM 64.3°F17.9°C 48.0°F8.9°C 56% 1.2 mph NE1.9 kmh NE 7.0 mph11.3 kmh 30.00 in1015.9 mb 0.00 in0.0 mm 0.00 in0.0 mm 0.00 in0.0 mm
09:30 AM 64.5°F18.1°C 48.0°F8.9°C 56% 0.9 mph SE1.4 kmh SE 5.0 mph8.0 kmh 30.00 in1015.9 mb 0.00 in0.0 mm 0.00 in0.0 mm 0.00 in0.0 mm
09:35 AM 66.0°F18.9°C 49.0°F9.4°C 54% 0.5 mph SSE0.8 kmh SSE 4.0 mph6.4 kmh 29.99 in1015.6 mb 0.00 in0.0 mm 0.00 in0.0 mm 0.00 in0.0 mm
09:40 AM 66.1°F18.9°C 49.0°F9.4°C 55% 0.9 mph S1.4 kmh S 6.0 mph9.7 kmh 29.99 in1015.6 mb 0.00 in0.0 mm 0.00 in0.0 mm 0.00 in0.0 mm
09:45 AM 65.8°F18.8°C 49.0°F9.4°C 55% 1.9 mph S3.1 kmh S 6.0 mph9.7 kmh 29.99 in1015.6 mb 0.00 in0.0 mm 0.00 in0.0 mm 0.00 in0.0 mm
09:50 AM 66.5°F19.2°C 49.0°F9.4°C 54% 1.7 mph SSE2.7 kmh SSE 4.0 mph6.4 kmh 29.99 in1015.6 mb 0.00 in0.0 mm 0.00 in0.0 mm 0.00 in0.0 mm
09:55 AM 66.5°F19.2°C 49.0°F9.4°C 54% 1.9 mph S3.1 kmh S 8.0 mph12.9 kmh 29.99 in1015.6 mb 0.00 in0.0 mm 0.00 in0.0 mm 0.00 in0.0 mm
10:00 AM 66.6°F19.2°C 49.0°F9.4°C 54% 2.6 mph SW4.2 kmh SW 8.0 mph12.9 kmh 29.98 in1015.2 mb 0.00 in0.0 mm 0.00 in0.0 mm 0.00 in0.0 mm
10:05 AM 67.6°F19.8°C 50.0°F10.0°C 53% 2.3 mph S3.7 kmh S 6.0 mph9.7 kmh 29.98 in1015.2 mb 0.00 in0.0 mm 0.00 in0.0 mm 0.00 in0.0 mm
10:10 AM 68.0°F20.0°C 50.0°F10.0°C 52% 2.1 mph SSW3.4 kmh SSW 6.0 mph9.7 kmh 29.98 in1015.2 mb 0.00 in0.0 mm 0.00 in0.0 mm 0.00 in0.0 mm
10:15 AM 68.3°F20.2°C 50.0°F10.0°C 52% 1.9 mph SSW3.1 kmh SSW 6.0 mph9.7 kmh 29.97 in1014.9 mb 0.00 in0.0 mm 0.00 in0.0 mm 0.00 in0.0 mm
10:20 AM 68.9°F20.5°C 49.0°F9.4°C 50% 2.0 mph SSW3.2 kmh SSW 7.0 mph11.3 kmh 29.97 in1014.9 mb 0.00 in0.0 mm 0.00 in0.0 mm 0.00 in0.0 mm
10:25 AM 69.1°F20.6°C 47.0°F8.3°C 46% 2.2 mph S3.5 kmh S 7.0 mph11.3 kmh 29.97 in1014.9 mb 0.00 in0.0 mm 0.00 in0.0 mm 0.00 in0.0 mm
10:30 AM 69.3°F20.7°C 46.0°F7.8°C 44% 2.0 mph S3.2 kmh S 6.0 mph9.7 kmh 29.97 in1014.9 mb 0.00 in0.0 mm 0.00 in0.0 mm 0.00 in0.0 mm
10:35 AM 69.9°F21.1°C 47.0°F8.3°C 44% 1.9 mph SSW3.1 kmh SSW 7.0 mph11.3 kmh 29.96 in1014.6 mb 0.00 in0.0 mm 0.00 in0.0 mm 0.00 in0.0 mm
10:40 AM 70.2°F21.2°C 46.0°F7.8°C 42% 1.9 mph SSW3.1 kmh SSW 7.0 mph11.3 kmh 29.96 in1014.6 mb 0.00 in0.0 mm 0.00 in0.0 mm 0.00 in0.0 mm
10:45 AM 69.8°F21.0°C 44.0°F6.7°C 40% 2.4 mph S3.9 kmh S 6.0 mph9.7 kmh 29.96 in1014.6 mb 0.00 in0.0 mm 0.00 in0.0 mm 0.00 in0.0 mm
10:50 AM 70.1°F21.2°C 45.0°F7.2°C 40% 2.7 mph ENE4.3 kmh ENE 6.0 mph9.7 kmh 29.95 in1014.2 mb 0.00 in0.0 mm 0.00 in0.0 mm 0.00 in0.0 mm
10:55 AM 70.1°F21.2°C 44.0°F6.7°C 39% 2.8 mph S4.5 kmh S 9.0 mph14.5 kmh 29.95 in1014.2 mb 0.00 in0.0 mm 0.00 in0.0 mm 0.00 in0.0 mm
11:00 AM 70.9°F21.6°C 45.0°F7.2°C 39% 2.2 mph SSW3.5 kmh SSW 5.0 mph8.0 kmh 29.95 in1014.2 mb 0.00 in0.0 mm 0.00 in0.0 mm 0.00 in0.0 mm
11:05 AM 70.5°F21.4°C 43.0°F6.1°C 37% 2.0 mph SSW3.2 kmh SSW 6.0 mph9.7 kmh 29.94 in1013.9 mb 0.00 in0.0 mm 0.00 in0.0 mm 0.00 in0.0 mm
11:10 AM 71.3°F21.8°C 44.0°F6.7°C 38% 2.3 mph SSE3.7 kmh SSE 6.0 mph9.7 kmh 29.94 in1013.9 mb 0.00 in0.0 mm 0.00 in0.0 mm 0.00 in0.0 mm
11:15 AM 71.5°F21.9°C 43.0°F6.1°C 36% 1.9 mph S3.1 kmh S 5.0 mph8.0 kmh 29.94 in1013.9 mb 0.00 in0.0 mm 0.00 in0.0 mm 0.00 in0.0 mm
11:20 AM 70.9°F21.6°C 43.0°F6.1°C 37% 1.8 mph S2.9 kmh S 4.0 mph6.4 kmh 29.94 in1013.9 mb 0.00 in0.0 mm 0.00 in0.0 mm 0.00 in0.0 mm
11:25 AM 71.6°F22.0°C 44.0°F6.7°C 37% 2.1 mph W3.4 kmh W 6.0 mph9.7 kmh 29.94 in1013.9 mb 0.00 in0.0 mm 0.00 in0.0 mm 0.00 in0.0 mm
11:30 AM 71.5°F21.9°C 44.0°F6.7°C 37% 2.3 mph SW3.7 kmh SW 9.0 mph14.5 kmh 29.94 in1013.9 mb 0.00 in0.0 mm 0.00 in0.0 mm 0.00 in0.0 mm
11:35 AM 71.4°F21.9°C 43.0°F6.1°C 36% 2.2 mph S3.5 kmh S 9.0 mph14.5 kmh 29.93 in1013.5 mb 0.00 in0.0 mm 0.00 in0.0 mm 0.00 in0.0 mm
11:40 AM 71.8°F22.1°C 43.0°F6.1°C 36% 3.0 mph S4.8 kmh S 8.0 mph12.9 kmh 29.93 in1013.5 mb 0.00 in0.0 mm 0.00 in0.0 mm 0.00 in0.0 mm
11:45 AM 72.2°F22.3°C 44.0°F6.7°C 36% 3.0 mph S4.8 kmh S 8.0 mph12.9 kmh 29.93 in1013.5 mb 0.00 in0.0 mm 0.00 in0.0 mm 0.00 in0.0 mm
11:50 AM 71.9°F22.2°C 42.0°F5.6°C 34% 3.0 mph SSW4.8 kmh SSW 9.0 mph14.5 kmh 29.93 in1013.5 mb 0.00 in0.0 mm 0.00 in0.0 mm 0.00 in0.0 mm
11:55 AM 71.5°F21.9°C 42.0°F5.6°C 34% 3.3 mph S5.3 kmh S 9.0 mph14.5 kmh 29.93 in1013.5 mb 0.00 in0.0 mm 0.00 in0.0 mm 0.00 in0.0 mm
12:00 PM 71.3°F21.8°C 41.0°F5.0°C 33% 2.5 mph SW4.0 kmh SW 6.0 mph9.7 kmh 29.93 in1013.5 mb 0.00 in0.0 mm 0.00 in0.0 mm 0.00 in0.0 mm
12:05 PM 71.6°F22.0°C 42.0°F5.6°C 34% 2.0 mph SW3.2 kmh SW 6.0 mph9.7 kmh 29.93 in1013.5 mb 0.00 in0.0 mm 0.00 in0.0 mm 0.00 in0.0 mm
12:10 PM 71.6°F22.0°C 43.0°F6.1°C 36% 1.7 mph S2.7 kmh S 5.0 mph8.0 kmh 29.93 in1013.5 mb 0.00 in0.0 mm 0.00 in0.0 mm 0.00 in0.0 mm
12:15 PM 71.9°F22.2°C 40.0°F4.4°C 32% 2.1 mph SSW3.4 kmh SSW 10.0 mph16.1 kmh 29.92 in1013.2 mb 0.00 in0.0 mm 0.00 in0.0 mm 0.00 in0.0 mm
12:20 PM 71.8°F22.1°C 40.0°F4.4°C 32% 2.7 mph S4.3 kmh S 10.0 mph16.1 kmh 29.93 in1013.5 mb 0.00 in0.0 mm 0.00 in0.0 mm 0.00 in0.0 mm
12:25 PM 72.1°F22.3°C 41.0°F5.0°C 32% 2.7 mph SSE4.3 kmh SSE 9.0 mph14.5 kmh 29.93 in1013.5 mb 0.00 in0.0 mm 0.00 in0.0 mm 0.00 in0.0 mm
12:30 PM 71.9°F22.2°C 43.0°F6.1°C 35% 2.3 mph NW3.7 kmh NW 8.0 mph12.9 kmh 29.92 in1013.2 mb 0.00 in0.0 mm 0.00 in0.0 mm 0.00 in0.0 mm
12:35 PM 72.4°F22.4°C 42.0°F5.6°C 33% 2.0 mph WSW3.2 kmh WSW 6.0 mph9.7 kmh 29.91 in1012.9 mb 0.00 in0.0 mm 0.00 in0.0 mm 0.00 in0.0 mm
12:40 PM 72.0°F22.2°C 41.0°F5.0°C 33% 2.3 mph S3.7 kmh S 6.0 mph9.7 kmh 29.91 in1012.9 mb 0.00 in0.0 mm 0.00 in0.0 mm 0.00 in0.0 mm
12:45 PM 72.6°F22.6°C 42.0°F5.6°C 33% 2.4 mph NW3.9 kmh NW 6.0 mph9.7 kmh 29.90 in1012.5 mb 0.00 in0.0 mm 0.00 in0.0 mm 0.00 in0.0 mm
12:50 PM 72.6°F22.6°C 41.0°F5.0°C 32% 2.3 mph S3.7 kmh S 6.0 mph9.7 kmh 29.90 in1012.5 mb 0.00 in0.0 mm 0.00 in0.0 mm 0.00 in0.0 mm
12:55 PM 72.3°F22.4°C 41.0°F5.0°C 32% 2.6 mph S4.2 kmh S 7.0 mph11.3 kmh 29.90 in1012.5 mb 0.00 in0.0 mm 0.00 in0.0 mm 0.00 in0.0 mm
01:00 PM 72.7°F22.6°C 40.0°F4.4°C 31% 2.6 mph SW4.2 kmh SW 8.0 mph12.9 kmh 29.90 in1012.5 mb 0.00 in0.0 mm 0.00 in0.0 mm 0.00 in0.0 mm
01:05 PM 72.7°F22.6°C 40.0°F4.4°C 31% 2.6 mph SSW4.2 kmh SSW 8.0 mph12.9 kmh 29.90 in1012.5 mb 0.00 in0.0 mm 0.00 in0.0 mm 0.00 in0.0 mm
01:10 PM 72.6°F22.6°C 41.0°F5.0°C 32% 3.1 mph SSW5.0 kmh SSW 7.0 mph11.3 kmh 29.90 in1012.5 mb 0.00 in0.0 mm 0.00 in0.0 mm 0.00 in0.0 mm
01:15 PM 72.6°F22.6°C 40.0°F4.4°C 31% 3.2 mph S5.1 kmh S 9.0 mph14.5 kmh 29.89 in1012.2 mb 0.00 in0.0 mm 0.00 in0.0 mm 0.00 in0.0 mm
01:20 PM 72.5°F22.5°C 42.0°F5.6°C 33% 2.7 mph SSE4.3 kmh SSE 9.0 mph14.5 kmh 29.89 in1012.2 mb 0.00 in0.0 mm 0.00 in0.0 mm 0.00 in0.0 mm
01:25 PM 72.6°F22.6°C 40.0°F4.4°C 31% 3.3 mph S5.3 kmh S 10.0 mph16.1 kmh 29.89 in1012.2 mb 0.00 in0.0 mm 0.00 in0.0 mm 0.00 in0.0 mm
01:30 PM 72.8°F22.7°C 39.0°F3.9°C 29% 3.4 mph SSW5.5 kmh SSW 10.0 mph16.1 kmh 29.89 in1012.2 mb 0.00 in0.0 mm 0.00 in0.0 mm 0.00 in0.0 mm
01:35 PM 72.6°F22.6°C 42.0°F5.6°C 33% 2.6 mph SE4.2 kmh SE 7.0 mph11.3 kmh 29.89 in1012.2 mb 0.00 in0.0 mm 0.00 in0.0 mm 0.00 in0.0 mm
01:40 PM 72.5°F22.5°C 42.0°F5.6°C 33% 2.5 mph SSW4.0 kmh SSW 7.0 mph11.3 kmh 29.89 in1012.2 mb 0.00 in0.0 mm 0.00 in0.0 mm 0.00 in0.0 mm
01:45 PM 72.7°F22.6°C 43.0°F6.1°C 34% 2.6 mph S4.2 kmh S 7.0 mph11.3 kmh 29.89 in1012.2 mb 0.00 in0.0 mm 0.00 in0.0 mm 0.00 in0.0 mm
01:50 PM 72.9°F22.7°C 43.0°F6.1°C 34% 2.3 mph SSW3.7 kmh SSW 7.0 mph11.3 kmh 29.88 in1011.9 mb 0.00 in0.0 mm 0.00 in0.0 mm 0.00 in0.0 mm
01:55 PM 72.8°F22.7°C 43.0°F6.1°C 34% 2.1 mph S3.4 kmh S 6.0 mph9.7 kmh 29.88 in1011.9 mb 0.00 in0.0 mm 0.00 in0.0 mm 0.00 in0.0 mm
02:00 PM 72.1°F22.3°C 44.0°F6.7°C 37% 2.3 mph W3.7 kmh W 6.0 mph9.7 kmh 29.88 in1011.9 mb 0.00 in0.0 mm 0.00 in0.0 mm 0.00 in0.0 mm
02:05 PM 71.5°F21.9°C 44.0°F6.7°C 37% 2.2 mph SE3.5 kmh SE 6.0 mph9.7 kmh 29.88 in1011.9 mb 0.00 in0.0 mm 0.00 in0.0 mm 0.00 in0.0 mm
02:10 PM 71.9°F22.2°C 46.0°F7.8°C 39% 1.9 mph WSW3.1 kmh WSW 6.0 mph9.7 kmh 29.88 in1011.9 mb 0.00 in0.0 mm 0.00 in0.0 mm 0.00 in0.0 mm
02:15 PM 71.9°F22.2°C 45.0°F7.2°C 38% 2.2 mph S3.5 kmh S 8.0 mph12.9 kmh 29.88 in1011.9 mb 0.00 in0.0 mm 0.00 in0.0 mm 0.00 in0.0 mm
02:20 PM 72.1°F22.3°C 44.0°F6.7°C 37% 2.3 mph SSE3.7 kmh SSE 8.0 mph12.9 kmh 29.88 in1011.9 mb 0.00 in0.0 mm 0.00 in0.0 mm 0.00 in0.0 mm
02:25 PM 72.1°F22.3°C 45.0°F7.2°C 38% 2.2 mph S3.5 kmh S 6.0 mph9.7 kmh 29.88 in1011.9 mb 0.00 in0.0 mm 0.00 in0.0 mm 0.00 in0.0 mm
02:30 PM 71.2°F21.8°C 45.0°F7.2°C 39% 2.7 mph S4.3 kmh S 6.0 mph9.7 kmh 29.88 in1011.9 mb 0.00 in0.0 mm 0.00 in0.0 mm 0.00 in0.0 mm
02:35 PM 71.5°F21.9°C 46.0°F7.8°C 40% 2.5 mph NNE4.0 kmh NNE 7.0 mph11.3 kmh 29.88 in1011.9 mb 0.00 in0.0 mm 0.00 in0.0 mm 0.00 in0.0 mm
02:40 PM 71.3°F21.8°C 46.0°F7.8°C 40% 2.2 mph E3.5 kmh E 9.0 mph14.5 kmh 29.87 in1011.5 mb 0.00 in0.0 mm 0.00 in0.0 mm 0.00 in0.0 mm
02:45 PM 71.3°F21.8°C 47.0°F8.3°C 42% 1.7 mph ESE2.7 kmh ESE 9.0 mph14.5 kmh 29.87 in1011.5 mb 0.00 in0.0 mm 0.00 in0.0 mm 0.00 in0.0 mm
02:50 PM 71.2°F21.8°C 47.0°F8.3°C 42% 1.6 mph SSW2.6 kmh SSW 7.0 mph11.3 kmh 29.86 in1011.2 mb 0.00 in0.0 mm 0.00 in0.0 mm 0.00 in0.0 mm
02:55 PM 71.0°F21.7°C 47.0°F8.3°C 42% 2.5 mph E4.0 kmh E 7.0 mph11.3 kmh 29.85 in1010.8 mb 0.00 in0.0 mm 0.00 in0.0 mm 0.00 in0.0 mm
03:00 PM 71.9°F22.2°C 47.0°F8.3°C 41% 2.6 mph SE4.2 kmh SE 8.0 mph12.9 kmh 29.85 in1010.8 mb 0.00 in0.0 mm 0.00 in0.0 mm 0.00 in0.0 mm
03:05 PM 72.2°F22.3°C 47.0°F8.3°C 41% 2.2 mph SSW3.5 kmh SSW 6.0 mph9.7 kmh 29.85 in1010.8 mb 0.00 in0.0 mm 0.00 in0.0 mm 0.00 in0.0 mm
03:10 PM 71.8°F22.1°C 47.0°F8.3°C 42% 2.2 mph SW3.5 kmh SW 6.0 mph9.7 kmh 29.85 in1010.8 mb 0.00 in0.0 mm 0.00 in0.0 mm 0.00 in0.0 mm
03:15 PM 71.6°F22.0°C 47.0°F8.3°C 42% 2.5 mph NE4.0 kmh NE 6.0 mph9.7 kmh 29.84 in1010.5 mb 0.00 in0.0 mm 0.00 in0.0 mm 0.00 in0.0 mm
03:20 PM 71.7°F22.1°C 47.0°F8.3°C 42% 2.3 mph SSW3.7 kmh SSW 6.0 mph9.7 kmh 29.85 in1010.8 mb 0.00 in0.0 mm 0.00 in0.0 mm 0.00 in0.0 mm
03:25 PM 72.0°F22.2°C 48.0°F8.9°C 42% 1.9 mph SW3.1 kmh SW 6.0 mph9.7 kmh 29.85 in1010.8 mb 0.00 in0.0 mm 0.00 in0.0 mm 0.00 in0.0 mm
03:30 PM 71.9°F22.2°C 47.0°F8.3°C 42% 2.0 mph SE3.2 kmh SE 7.0 mph11.3 kmh 29.85 in1010.8 mb 0.00 in0.0 mm 0.00 in0.0 mm 0.00 in0.0 mm
03:35 PM 72.4°F22.4°C 48.0°F8.9°C 42% 1.9 mph SE3.1 kmh SE 7.0 mph11.3 kmh 29.85 in1010.8 mb 0.00 in0.0 mm 0.00 in0.0 mm 0.00 in0.0 mm
03:40 PM 72.4°F22.4°C 49.0°F9.4°C 43% 1.6 mph SSE2.6 kmh SSE 4.0 mph6.4 kmh 29.84 in1010.5 mb 0.00 in0.0 mm 0.00 in0.0 mm 0.00 in0.0 mm
03:45 PM 72.1°F22.3°C 48.0°F8.9°C 42% 1.9 mph NE3.1 kmh NE 8.0 mph12.9 kmh 29.84 in1010.5 mb 0.00 in0.0 mm 0.00 in0.0 mm 0.00 in0.0 mm
03:50 PM 71.6°F22.0°C 47.0°F8.3°C 42% 2.2 mph SSE3.5 kmh SSE 8.0 mph12.9 kmh 29.84 in1010.5 mb 0.00 in0.0 mm 0.00 in0.0 mm 0.00 in0.0 mm
03:55 PM 71.3°F21.8°C 47.0°F8.3°C 42% 1.8 mph SW2.9 kmh SW 5.0 mph8.0 kmh 29.84 in1010.5 mb 0.00 in0.0 mm 0.00 in0.0 mm 0.00 in0.0 mm
04:00 PM 71.2°F21.8°C 47.0°F8.3°C 43% 1.2 mph SW1.9 kmh SW 5.0 mph8.0 kmh 29.84 in1010.5 mb 0.00 in0.0 mm 0.00 in0.0 mm 0.00 in0.0 mm
04:05 PM 71.1°F21.7°C 47.0°F8.3°C 43% 1.3 mph S2.1 kmh S 6.0 mph9.7 kmh 29.84 in1010.5 mb 0.00 in0.0 mm 0.00 in0.0 mm 0.00 in0.0 mm
04:10 PM 71.2°F21.8°C 47.0°F8.3°C 43% 1.5 mph S2.4 kmh S 4.0 mph6.4 kmh 29.85 in1010.8 mb 0.00 in0.0 mm 0.00 in0.0 mm 0.00 in0.0 mm
04:15 PM 71.5°F21.9°C 48.0°F8.9°C 43% 1.2 mph SE1.9 kmh SE 4.0 mph6.4 kmh 29.85 in1010.8 mb 0.00 in0.0 mm 0.00 in0.0 mm 0.00 in0.0 mm
04:20 PM 71.9°F22.2°C 47.0°F8.3°C 42% 1.0 mph S1.6 kmh S 4.0 mph6.4 kmh 29.85 in1010.8 mb 0.00 in0.0 mm 0.00 in0.0 mm 0.00 in0.0 mm
04:25 PM 72.0°F22.2°C 49.0°F9.4°C 44% 1.0 mph E1.6 kmh E 4.0 mph6.4 kmh 29.84 in1010.5 mb 0.00 in0.0 mm 0.00 in0.0 mm 0.00 in0.0 mm
04:30 PM 71.7°F22.1°C 48.0°F8.9°C 43% 1.3 mph ESE2.1 kmh ESE 7.0 mph11.3 kmh 29.84 in1010.5 mb 0.00 in0.0 mm 0.00 in0.0 mm 0.00 in0.0 mm
04:35 PM 71.3°F21.8°C 48.0°F8.9°C 43% 1.6 mph SW2.6 kmh SW 7.0 mph11.3 kmh 29.85 in1010.8 mb 0.00 in0.0 mm 0.00 in0.0 mm 0.00 in0.0 mm
04:40 PM 71.1°F21.7°C 47.0°F8.3°C 43% 1.8 mph N2.9 kmh N 7.0 mph11.3 kmh 29.85 in1010.8 mb 0.00 in0.0 mm 0.00 in0.0 mm 0.00 in0.0 mm
04:45 PM 70.9°F21.6°C 47.0°F8.3°C 43% 1.3 mph N2.1 kmh N 6.0 mph9.7 kmh 29.85 in1010.8 mb 0.00 in0.0 mm 0.00 in0.0 mm 0.00 in0.0 mm
04:50 PM 70.8°F21.6°C 47.0°F8.3°C 43% 0.8 mph N1.3 kmh N 3.0 mph4.8 kmh 29.85 in1010.8 mb 0.00 in0.0 mm 0.00 in0.0 mm 0.00 in0.0 mm
04:55 PM 70.7°F21.5°C 47.0°F8.3°C 43% 0.5 mph N0.8 kmh N 3.0 mph4.8 kmh 29.86 in1011.2 mb 0.00 in0.0 mm 0.00 in0.0 mm 0.00 in0.0 mm
05:00 PM 70.7°F21.5°C 47.0°F8.3°C 43% 0.5 mph N0.8 kmh N 3.0 mph4.8 kmh 29.87 in1011.5 mb 0.00 in0.0 mm 0.00 in0.0 mm 0.00 in0.0 mm
05:05 PM 70.5°F21.4°C 47.0°F8.3°C 44% 1.1 mph N1.8 kmh N 4.0 mph6.4 kmh 29.89 in1012.2 mb 0.00 in0.0 mm 0.00 in0.0 mm 0.00 in0.0 mm
05:10 PM 69.9°F21.1°C 48.0°F8.9°C 46% 0.8 mph N1.3 kmh N 4.0 mph6.4 kmh 29.88 in1011.9 mb 0.00 in0.0 mm 0.00 in0.0 mm 0.00 in0.0 mm
05:15 PM 68.3°F20.2°C 49.0°F9.4°C 50% 0.2 mph N0.3 kmh N 2.0 mph3.2 kmh 29.88 in1011.9 mb 0.00 in0.0 mm 0.00 in0.0 mm 0.00 in0.0 mm
05:20 PM 67.5°F19.7°C 50.0°F10.0°C 54% Calm Calm 1.0 mph1.6 kmh 29.89 in1012.2 mb 0.00 in0.0 mm 0.00 in0.0 mm 0.00 in0.0 mm
05:25 PM 65.9°F18.8°C 50.0°F10.0°C 57% Calm Calm -- 29.89 in1012.2 mb 0.00 in0.0 mm 0.00 in0.0 mm 0.00 in0.0 mm
05:30 PM 66.2°F19.0°C 50.0°F10.0°C 56% 0.1 mph N0.2 kmh N 2.0 mph3.2 kmh 29.90 in1012.5 mb 0.00 in0.0 mm 0.00 in0.0 mm 0.00 in0.0 mm
05:35 PM 66.7°F19.3°C 49.0°F9.4°C 54% 0.8 mph N1.3 kmh N 4.0 mph6.4 kmh 29.90 in1012.5 mb 0.00 in0.0 mm 0.00 in0.0 mm 0.00 in0.0 mm
05:40 PM 67.0°F19.4°C 49.0°F9.4°C 53% 1.2 mph N1.9 kmh N 4.0 mph6.4 kmh 29.89 in1012.2 mb 0.00 in0.0 mm 0.00 in0.0 mm 0.00 in0.0 mm
05:45 PM 66.5°F19.2°C 50.0°F10.0°C 56% 0.8 mph N1.3 kmh N 3.0 mph4.8 kmh 29.89 in1012.2 mb 0.00 in0.0 mm 0.00 in0.0 mm 0.01 in0.3 mm
05:50 PM 64.7°F18.2°C 51.0°F10.6°C 61% 0.3 mph N0.5 kmh N 2.0 mph3.2 kmh 29.88 in1011.9 mb 0.00 in0.0 mm 0.00 in0.0 mm 0.01 in0.3 mm
05:55 PM 63.4°F17.4°C 51.0°F10.6°C 65% Calm Calm 1.0 mph1.6 kmh 29.88 in1011.9 mb 0.07 in1.8 mm 0.84 in21.3 mm 0.02 in0.5 mm
06:00 PM 62.6°F17.0°C 51.0°F10.6°C 66% 0.1 mph N0.2 kmh N 1.0 mph1.6 kmh 29.87 in1011.5 mb 0.12 in3.0 mm 0.05 in1.3 mm 0.03 in0.8 mm
06:05 PM 62.1°F16.7°C 51.0°F10.6°C 67% 0.1 mph N0.2 kmh N 1.0 mph1.6 kmh 29.87 in1011.5 mb 0.13 in3.3 mm 0.12 in3.0 mm 0.04 in1.0 mm
06:10 PM 61.8°F16.6°C 51.0°F10.6°C 67% Calm Calm 1.0 mph1.6 kmh 29.86 in1011.2 mb 0.11 in2.8 mm 0.00 in0.0 mm 0.05 in1.3 mm
06:15 PM 61.5°F16.4°C 50.0°F10.0°C 67% 0.1 mph N0.2 kmh N 2.0 mph3.2 kmh 29.84 in1010.5 mb 0.10 in2.5 mm 0.00 in0.0 mm 0.06 in1.5 mm
06:20 PM 61.4°F16.3°C 51.0°F10.6°C 68% 0.7 mph N1.1 kmh N 4.0 mph6.4 kmh 29.83 in1010.2 mb 0.08 in2.0 mm 0.00 in0.0 mm 0.06 in1.5 mm
06:25 PM 61.3°F16.3°C 51.0°F10.6°C 68% 0.6 mph N1.0 kmh N 4.0 mph6.4 kmh 29.84 in1010.5 mb 0.06 in1.5 mm 0.00 in0.0 mm 0.06 in1.5 mm
06:30 PM 61.3°F16.3°C 51.0°F10.6°C 68% Calm Calm 2.0 mph3.2 kmh 29.82 in1009.8 mb 0.03 in0.8 mm 0.00 in0.0 mm 0.06 in1.5 mm
06:35 PM 61.2°F16.2°C 50.0°F10.0°C 68% 0.2 mph N0.3 kmh N 3.0 mph4.8 kmh 29.81 in1009.5 mb 0.00 in0.0 mm 0.00 in0.0 mm 0.06 in1.5 mm
06:40 PM 61.3°F16.3°C 51.0°F10.6°C 68% 0.4 mph N0.6 kmh N 3.0 mph4.8 kmh 29.81 in1009.5 mb 0.00 in0.0 mm 0.00 in0.0 mm 0.06 in1.5 mm
06:45 PM 61.3°F16.3°C 51.0°F10.6°C 68% 0.2 mph N0.3 kmh N 1.0 mph1.6 kmh 29.79 in1008.8 mb 0.00 in0.0 mm 0.00 in0.0 mm 0.06 in1.5 mm
06:50 PM 61.4°F16.3°C 50.0°F10.0°C 67% 0.3 mph N0.5 kmh N 4.0 mph6.4 kmh 29.79 in1008.8 mb 0.00 in0.0 mm 0.00 in0.0 mm 0.06 in1.5 mm
06:55 PM 61.7°F16.5°C 51.0°F10.6°C 67% 0.4 mph N0.6 kmh N 4.0 mph6.4 kmh 29.80 in1009.1 mb 0.00 in0.0 mm 0.00 in0.0 mm 0.06 in1.5 mm
07:00 PM 62.5°F16.9°C 51.0°F10.6°C 66% 0.1 mph N0.2 kmh N 2.0 mph3.2 kmh 29.82 in1009.8 mb 0.00 in0.0 mm 0.00 in0.0 mm 0.06 in1.5 mm
07:05 PM 62.8°F17.1°C 51.0°F10.6°C 65% Calm Calm 1.0 mph1.6 kmh 29.83 in1010.2 mb 0.00 in0.0 mm 0.00 in0.0 mm 0.06 in1.5 mm
07:10 PM 62.6°F17.0°C 51.0°F10.6°C 65% 0.5 mph N0.8 kmh N 3.0 mph4.8 kmh 29.84 in1010.5 mb 0.00 in0.0 mm 0.00 in0.0 mm 0.06 in1.5 mm
07:15 PM 62.4°F16.9°C 50.0°F10.0°C 65% 1.5 mph N2.4 kmh N 8.0 mph12.9 kmh 29.86 in1011.2 mb 0.00 in0.0 mm 0.00 in0.0 mm 0.06 in1.5 mm
07:20 PM 62.3°F16.8°C 50.0°F10.0°C 64% 1.8 mph N2.9 kmh N 8.0 mph12.9 kmh 29.85 in1010.8 mb 0.00 in0.0 mm 0.00 in0.0 mm 0.06 in1.5 mm
07:25 PM 62.0°F16.7°C 50.0°F10.0°C 64% 1.0 mph N1.6 kmh N 4.0 mph6.4 kmh 29.85 in1010.8 mb 0.00 in0.0 mm 0.00 in0.0 mm 0.06 in1.5 mm
07:30 PM 61.6°F16.4°C 50.0°F10.0°C 65% 0.3 mph N0.5 kmh N 2.0 mph3.2 kmh 29.85 in1010.8 mb 0.00 in0.0 mm 0.00 in0.0 mm 0.06 in1.5 mm
07:35 PM 61.1°F16.2°C 50.0°F10.0°C 67% 0.1 mph N0.2 kmh N 2.0 mph3.2 kmh 29.85 in1010.8 mb 0.00 in0.0 mm 0.00 in0.0 mm 0.06 in1.5 mm
07:40 PM 60.8°F16.0°C 50.0°F10.0°C 68% Calm Calm 1.0 mph1.6 kmh 29.85 in1010.8 mb 0.00 in0.0 mm 0.00 in0.0 mm 0.06 in1.5 mm
07:45 PM 60.7°F15.9°C 50.0°F10.0°C 69% Calm Calm 1.0 mph1.6 kmh 29.85 in1010.8 mb 0.00 in0.0 mm 0.00 in0.0 mm 0.06 in1.5 mm
07:50 PM 60.8°F16.0°C 51.0°F10.6°C 70% Calm Calm 2.0 mph3.2 kmh 29.85 in1010.8 mb 0.00 in0.0 mm 0.00 in0.0 mm 0.06 in1.5 mm
07:55 PM 61.0°F16.1°C 52.0°F11.1°C 71% Calm Calm 2.0 mph3.2 kmh 29.85 in1010.8 mb 0.00 in0.0 mm 0.00 in0.0 mm 0.06 in1.5 mm
08:00 PM 62.2°F16.8°C 51.0°F10.6°C 67% 0.1 mph N0.2 kmh N 2.0 mph3.2 kmh 29.85 in1010.8 mb 0.00 in0.0 mm 0.00 in0.0 mm 0.06 in1.5 mm
08:05 PM 63.4°F17.4°C 50.0°F10.0°C 62% 0.3 mph N0.5 kmh N 3.0 mph4.8 kmh 29.85 in1010.8 mb 0.00 in0.0 mm 0.00 in0.0 mm 0.06 in1.5 mm
08:10 PM 64.1°F17.8°C 50.0°F10.0°C 60% 0.3 mph N0.5 kmh N 3.0 mph4.8 kmh 29.85 in1010.8 mb 0.00 in0.0 mm 0.00 in0.0 mm 0.06 in1.5 mm
08:15 PM 63.6°F17.6°C 50.0°F10.0°C 62% 0.2 mph N0.3 kmh N 2.0 mph3.2 kmh 29.84 in1010.5 mb 0.00 in0.0 mm 0.00 in0.0 mm 0.06 in1.5 mm
08:20 PM 64.0°F17.8°C 50.0°F10.0°C 60% 0.3 mph N0.5 kmh N 3.0 mph4.8 kmh 29.86 in1011.2 mb 0.00 in0.0 mm 0.00 in0.0 mm 0.06 in1.5 mm
08:25 PM 64.5°F18.1°C 50.0°F10.0°C 60% 0.6 mph N1.0 kmh N 3.0 mph4.8 kmh 29.85 in1010.8 mb 0.00 in0.0 mm 0.00 in0.0 mm 0.06 in1.5 mm
08:30 PM 64.3°F17.9°C 50.0°F10.0°C 60% 0.9 mph N1.4 kmh N 3.0 mph4.8 kmh 29.85 in1010.8 mb 0.00 in0.0 mm 0.00 in0.0 mm 0.06 in1.5 mm
08:35 PM 64.2°F17.9°C 50.0°F10.0°C 60% 0.8 mph N1.3 kmh N 3.0 mph4.8 kmh 29.85 in1010.8 mb 0.00 in0.0 mm 0.00 in0.0 mm 0.06 in1.5 mm
08:40 PM 63.7°F17.6°C 50.0°F10.0°C 62% 0.6 mph N1.0 kmh N 3.0 mph4.8 kmh 29.84 in1010.5 mb 0.00 in0.0 mm 0.00 in0.0 mm 0.06 in1.5 mm
08:45 PM 63.0°F17.2°C 50.0°F10.0°C 63% 0.6 mph N1.0 kmh N 3.0 mph4.8 kmh 29.81 in1009.5 mb 0.00 in0.0 mm 0.00 in0.0 mm 0.06 in1.5 mm
08:50 PM 63.2°F17.3°C 51.0°F10.6°C 64% 0.8 mph N1.3 kmh N 4.0 mph6.4 kmh 29.80 in1009.1 mb 0.00 in0.0 mm 0.00 in0.0 mm 0.06 in1.5 mm
08:55 PM 64.4°F18.0°C 50.0°F10.0°C 61% 1.7 mph N2.7 kmh N 6.0 mph9.7 kmh 29.82 in1009.8 mb 0.00 in0.0 mm 0.00 in0.0 mm 0.06 in1.5 mm
09:00 PM 65.1°F18.4°C 51.0°F10.6°C 60% 2.0 mph N3.2 kmh N 6.0 mph9.7 kmh 29.82 in1009.8 mb 0.00 in0.0 mm 0.00 in0.0 mm 0.06 in1.5 mm
09:05 PM 65.2°F18.4°C 51.0°F10.6°C 60% 1.7 mph N2.7 kmh N 6.0 mph9.7 kmh 29.82 in1009.8 mb 0.00 in0.0 mm 0.00 in0.0 mm 0.06 in1.5 mm
09:10 PM 65.0°F18.3°C 51.0°F10.6°C 61% 1.2 mph N1.9 kmh N 6.0 mph9.7 kmh 29.82 in1009.8 mb 0.00 in0.0 mm 0.00 in0.0 mm 0.06 in1.5 mm
09:15 PM 65.4°F18.6°C 51.0°F10.6°C 60% 0.5 mph N0.8 kmh N 2.0 mph3.2 kmh 29.82 in1009.8 mb 0.00 in0.0 mm 0.00 in0.0 mm 0.06 in1.5 mm
09:20 PM 64.6°F18.1°C 51.0°F10.6°C 62% 0.2 mph N0.3 kmh N 2.0 mph3.2 kmh 29.81 in1009.5 mb 0.00 in0.0 mm 0.00 in0.0 mm 0.06 in1.5 mm
09:25 PM 64.2°F17.9°C 51.0°F10.6°C 63% Calm Calm 1.0 mph1.6 kmh 29.80 in1009.1 mb 0.00 in0.0 mm 0.00 in0.0 mm 0.06 in1.5 mm
09:30 PM 63.9°F17.7°C 51.0°F10.6°C 64% Calm Calm 1.0 mph1.6 kmh 29.80 in1009.1 mb 0.00 in0.0 mm 0.00 in0.0 mm 0.06 in1.5 mm
09:35 PM 64.0°F17.8°C 51.0°F10.6°C 64% Calm Calm 1.0 mph1.6 kmh 29.80 in1009.1 mb 0.00 in0.0 mm 0.00 in0.0 mm 0.06 in1.5 mm
09:40 PM 64.2°F17.9°C 52.0°F11.1°C 64% Calm Calm 1.0 mph1.6 kmh 29.80 in1009.1 mb 0.00 in0.0 mm 0.00 in0.0 mm 0.06 in1.5 mm
09:45 PM 64.2°F17.9°C 52.0°F11.1°C 64% 0.1 mph N0.2 kmh N 2.0 mph3.2 kmh 29.80 in1009.1 mb 0.00 in0.0 mm 0.00 in0.0 mm 0.06 in1.5 mm
09:50 PM 64.3°F17.9°C 52.0°F11.1°C 64% 0.1 mph N0.2 kmh N 2.0 mph3.2 kmh 29.80 in1009.1 mb 0.00 in0.0 mm 0.00 in0.0 mm 0.06 in1.5 mm
09:55 PM 64.3°F17.9°C 52.0°F11.1°C 64% Calm Calm 1.0 mph1.6 kmh 29.80 in1009.1 mb 0.00 in0.0 mm 0.00 in0.0 mm 0.06 in1.5 mm
10:00 PM 64.3°F17.9°C 52.0°F11.1°C 64% Calm Calm 1.0 mph1.6 kmh 29.81 in1009.5 mb 0.00 in0.0 mm 0.00 in0.0 mm 0.06 in1.5 mm
10:05 PM 64.1°F17.8°C 52.0°F11.1°C 64% 0.1 mph N0.2 kmh N 2.0 mph3.2 kmh 29.80 in1009.1 mb 0.00 in0.0 mm 0.00 in0.0 mm 0.06 in1.5 mm
10:10 PM 64.5°F18.1°C 52.0°F11.1°C 64% 0.3 mph N0.5 kmh N 2.0 mph3.2 kmh 29.80 in1009.1 mb 0.00 in0.0 mm 0.00 in0.0 mm 0.06 in1.5 mm
10:15 PM 64.8°F18.2°C 52.0°F11.1°C 63% 0.3 mph N0.5 kmh N 2.0 mph3.2 kmh 29.82 in1009.8 mb 0.00 in0.0 mm 0.00 in0.0 mm 0.06 in1.5 mm
10:20 PM 64.5°F18.1°C 51.0°F10.6°C 63% 0.1 mph N0.2 kmh N 1.0 mph1.6 kmh 29.82 in1009.8 mb 0.00 in0.0 mm 0.00 in0.0 mm 0.06 in1.5 mm
10:25 PM 64.0°F17.8°C 52.0°F11.1°C 65% Calm Calm -- 29.82 in1009.8 mb 0.00 in0.0 mm 0.00 in0.0 mm 0.06 in1.5 mm
10:30 PM 63.8°F17.7°C 52.0°F11.1°C 65% Calm Calm -- 29.82 in1009.8 mb 0.00 in0.0 mm 0.00 in0.0 mm 0.06 in1.5 mm
10:35 PM 63.4°F17.4°C 52.0°F11.1°C 66% Calm Calm -- 29.82 in1009.8 mb 0.00 in0.0 mm 0.00 in0.0 mm 0.06 in1.5 mm
10:40 PM 63.3°F17.4°C 52.0°F11.1°C 66% Calm Calm -- 29.83 in1010.2 mb 0.00 in0.0 mm 0.00 in0.0 mm 0.06 in1.5 mm
10:45 PM 63.1°F17.3°C 52.0°F11.1°C 67% Calm Calm -- 29.84 in1010.5 mb 0.00 in0.0 mm 0.00 in0.0 mm 0.06 in1.5 mm
10:50 PM 63.0°F17.2°C 52.0°F11.1°C 67% Calm Calm -- 29.83 in1010.2 mb 0.00 in0.0 mm 0.00 in0.0 mm 0.06 in1.5 mm
10:55 PM 62.9°F17.2°C 52.0°F11.1°C 67% Calm Calm -- 29.83 in1010.2 mb 0.00 in0.0 mm 0.00 in0.0 mm 0.06 in1.5 mm
11:00 PM 62.7°F17.1°C 52.0°F11.1°C 68% Calm Calm -- 29.83 in1010.2 mb 0.00 in0.0 mm 0.00 in0.0 mm 0.13 in3.3 mm
11:05 PM 62.8°F17.1°C 52.0°F11.1°C 67% Calm Calm -- 29.84 in1010.5 mb 0.00 in0.0 mm 0.00 in0.0 mm 0.13 in3.3 mm
11:10 PM 62.6°F17.0°C 51.0°F10.6°C 67% Calm Calm -- 29.83 in1010.2 mb 0.00 in0.0 mm 0.00 in0.0 mm 0.13 in3.3 mm
11:15 PM 62.4°F16.9°C 52.0°F11.1°C 68% Calm Calm -- 29.82 in1009.8 mb 0.00 in0.0 mm 0.00 in0.0 mm 0.13 in3.3 mm
11:20 PM 62.1°F16.7°C 51.0°F10.6°C 68% Calm Calm -- 29.82 in1009.8 mb 0.00 in0.0 mm 0.00 in0.0 mm 0.13 in3.3 mm
11:25 PM 61.9°F16.6°C 51.0°F10.6°C 68% Calm Calm -- 29.82 in1009.8 mb 0.00 in0.0 mm 0.00 in0.0 mm 0.13 in3.3 mm
11:30 PM 61.8°F16.6°C 51.0°F10.6°C 68% Calm Calm -- 29.82 in1009.8 mb 0.00 in0.0 mm 0.00 in0.0 mm 0.13 in3.3 mm
11:35 PM 61.6°F16.4°C 51.0°F10.6°C 68% Calm Calm -- 29.82 in1009.8 mb 0.00 in0.0 mm 0.00 in0.0 mm 0.13 in3.3 mm
11:40 PM 61.6°F16.4°C 51.0°F10.6°C 69% Calm Calm -- 29.82 in1009.8 mb 0.00 in0.0 mm 0.00 in0.0 mm 0.13 in3.3 mm
11:45 PM 61.8°F16.6°C 51.0°F10.6°C 69% Calm Calm -- 29.82 in1009.8 mb 0.00 in0.0 mm 0.00 in0.0 mm 0.13 in3.3 mm
11:50 PM 61.9°F16.6°C 52.0°F11.1°C 69% Calm Calm -- 29.82 in1009.8 mb 0.00 in0.0 mm 0.00 in0.0 mm 0.13 in3.3 mm
11:55 PM 62.2°F16.8°C 52.0°F11.1°C 69% Calm Calm -- 29.82 in1009.8 mb 0.00 in0.0 mm 0.00 in0.0 mm 0.13 in3.3 mm